Time;durP1;ratioP1;P1;durP2;ratioP2;P2;SDS_P1;SDS_P2;PMS_P1;PMS_P2;Temp;Humidity;BMP_temperature;BMP_pressure;BME280_temperature;BME280_humidity;BME280_pressure;Samples;Min_cycle;Max_cycle;Signal;HPM_P1;HPM_P2
2022/11/05 00:09:28;;;;;;;8.68;3.10;;;;;;;8.98;98.05;100537.41;5026569;28;20052;-43
2022/11/05 00:17:22;;;;;;;6.88;2.30;;;;;;;9.25;96.43;100488.22;5030605;28;20049;-42
2022/11/05 00:19:49;;;;;;;7.32;2.58;;;;;;;9.25;96.53;100479.94;5029134;28;20045;-42
2022/11/05 00:25:16;;;;;;;5.25;2.03;;;;;;;9.28;96.29;100476.50;5025612;28;20045;-42
2022/11/05 00:27:48;;;;;;;21.48;4.55;;;;;;;9.33;96.26;100484.56;5029574;28;20060;-42
2022/11/05 00:30:19;;;;;;;;;;;;;;;9.32;96.12;100469.16;5031016;28;20053;-43
2022/11/05 00:32:47;;;;;;;7.93;2.70;;;;;;;9.32;95.97;100463.63;5030950;28;19979;-43
2022/11/05 00:35:15;;;;;;;15.25;4.97;;;;;;;9.32;95.97;100458.09;5030180;28;20056;-42
2022/11/05 00:37:41;;;;;;;5.38;2.03;;;;;;;9.33;95.87;100454.16;5023778;28;20049;-44
2022/11/05 00:40:15;;;;;;;9.50;3.10;;;;;;;9.35;95.90;100451.84;5030979;28;20042;-43
2022/11/05 00:45:29;;;;;;;5.25;1.27;;;;;;;9.38;95.52;100440.94;5028906;28;20057;-42
2022/11/05 00:50:41;;;;;;;6.43;1.95;;;;;;;9.41;95.44;100444.97;5028223;28;20044;-47
2022/11/05 00:53:07;;;;;;;5.57;1.38;;;;;;;9.41;95.37;100439.44;5029621;28;20045;-42
2022/11/05 00:55:38;;;;;;;4.30;1.00;;;;;;;9.39;95.27;100434.28;5029474;28;20456;-42
2022/11/05 00:58:16;;;;;;;8.60;1.30;;;;;;;9.38;95.28;100431.84;5024579;28;20060;-43
2022/11/05 01:00:47;;;;;;;11.20;1.92;;;;;;;9.36;95.38;100439.66;5024222;28;20037;-48
2022/11/05 01:03:15;;;;;;;5.32;0.95;;;;;;;9.33;95.52;100432.88;5028449;28;20135;-42
2022/11/05 01:05:46;;;;;;;2.08;0.80;;;;;;;9.31;95.75;100428.84;5026659;28;20500;-42
2022/11/05 01:08:14;;;;;;;3.70;0.80;;;;;;;9.29;95.73;100428.41;5025994;28;20045;-42
2022/11/05 01:10:47;;;;;;;3.72;1.25;;;;;;;9.27;95.97;100433.44;5028815;28;20096;-42
2022/11/05 01:13:20;;;;;;;8.48;1.35;;;;;;;9.24;96.04;100429.41;5025531;28;20049;-42
2022/11/05 01:15:47;;;;;;;3.65;1.17;;;;;;;9.22;96.21;100423.44;5026793;28;20438;-42
2022/11/05 01:18:14;;;;;;;5.03;1.48;;;;;;;9.22;96.22;100414.31;5022335;28;20061;-42
2022/11/05 01:20:40;;;;;;;10.27;1.50;;;;;;;9.20;96.45;100406.41;5029563;28;20072;-41
2022/11/05 01:23:07;;;;;;;3.20;1.73;;;;;;;9.19;96.62;100408.34;5028067;28;20045;-41
2022/11/05 01:25:40;;;;;;;4.75;1.98;;;;;;;9.18;96.70;100403.19;5027636;28;20065;-42
2022/11/05 01:28:08;;;;;;;2.78;1.38;;;;;;;9.16;96.77;100413.75;5028204;28;20053;-43
2022/11/05 01:30:36;;;;;;;11.00;1.48;;;;;;;9.15;97.05;100410.19;5029166;28;20116;-42
2022/11/05 01:33:03;;;;;;;9.52;2.53;;;;;;;9.15;97.30;100412.16;5030111;28;20045;-42
2022/11/05 01:35:30;;;;;;;6.80;1.27;;;;;;;9.14;97.31;100408.56;5027106;28;20041;-42
2022/11/05 01:37:56;;;;;;;4.13;1.40;;;;;;;9.15;97.54;100407.44;5021880;28;20460;-42
2022/11/05 01:40:24;;;;;;;6.57;1.20;;;;;;;9.14;97.48;100403.06;5026944;28;20510;-42
2022/11/05 01:42:51;;;;;;;4.72;1.73;;;;;;;9.14;97.53;100392.00;5025343;28;20052;-45
2022/11/05 01:45:21;;;;;;;11.55;1.58;;;;;;;9.14;97.56;100400.28;5028728;28;20107;-42
2022/11/05 01:48:08;;;;;;;4.32;1.60;;;;;;;9.13;97.71;100384.84;5027740;28;20044;-43
2022/11/05 01:50:41;;;;;;;9.90;1.65;;;;;;;9.12;97.75;100387.97;5023900;28;20049;-42
2022/11/05 01:53:22;;;;;;;3.75;1.02;;;;;;;9.12;98.15;100374.97;5019886;28;20045;-47
2022/11/05 01:56:08;;;;;;;2.75;1.02;;;;;;;9.13;98.15;100375.78;5029061;28;20041;-45
2022/11/05 01:58:51;;;;;;;6.55;1.30;;;;;;;9.14;98.24;100369.91;5024496;28;20056;-42
2022/11/05 02:01:18;;;;;;;2.83;1.15;;;;;;;9.14;98.39;100366.34;5022118;28;20052;-42
2022/11/05 02:03:48;;;;;;;4.72;1.23;;;;;;;9.13;98.53;100361.97;5025580;28;20053;-46
2022/11/05 02:06:16;;;;;;;6.47;1.60;;;;;;;9.13;98.43;100362.75;5031473;28;20045;-42
2022/11/05 02:09:04;;;;;;;6.57;1.30;;;;;;;9.14;98.76;100358.06;5024061;28;20049;-42
2022/11/05 02:11:31;;;;;;;15.18;4.60;;;;;;;9.13;98.89;100357.25;5021960;28;20076;-42
2022/11/05 02:13:58;;;;;;;5.00;1.13;;;;;;;9.13;99.19;100350.94;5024378;28;20419;-42
2022/11/05 02:16:36;;;;;;;5.03;1.45;;;;;;;9.13;99.12;100351.72;5026041;28;20037;-42
2022/11/05 02:19:37;;;;;;;5.72;1.48;;;;;;;9.13;99.17;100348.94;5026355;28;20474;-44
2022/11/05 02:22:34;;;;;;;4.32;0.90;;;;;;;9.13;99.47;100340.66;5028234;28;20156;-42
2022/11/05 02:25:13;;;;;;;6.00;2.75;;;;;;;9.13;99.59;100346.19;5022900;28;20037;-41
2022/11/05 02:27:39;;;;;;;5.00;1.85;;;;;;;9.13;99.85;100340.66;5026857;28;20534;-41
2022/11/05 02:30:25;;;;;;;9.07;2.65;;;;;;;9.15;99.73;100338.38;5024413;28;20034;-42
2022/11/05 02:32:51;;;;;;;5.60;1.10;;;;;;;9.15;99.71;100332.06;5024495;28;20049;-42
2022/11/05 02:35:35;;;;;;;5.85;2.05;;;;;;;9.16;99.84;100323.41;5010721;28;20052;-42
2022/11/05 02:38:10;;;;;;;3.90;1.05;;;;;;;9.16;99.98;100317.88;5021155;28;20523;-45
2022/11/05 02:40:52;;;;;;;4.25;0.93;;;;;;;9.16;100.00;100312.38;5026848;28;20060;-42
2022/11/05 02:44:05;;;;;;;2.42;0.90;;;;;;;9.16;100.00;100311.56;5010316;28;20045;-42
2022/11/05 02:46:53;;;;;;;5.05;0.95;;;;;;;9.15;100.00;100309.97;5028292;28;20072;-42
2022/11/05 02:49:38;;;;;;;4.90;1.05;;;;;;;9.14;100.00;100306.41;5015941;28;20053;-42
2022/11/05 02:52:20;;;;;;;7.07;1.35;;;;;;;9.16;100.00;100293.03;5008763;28;20057;-42
2022/11/05 02:55:42;;;;;;;1.20;1.00;;;;;;;9.16;100.00;100273.69;5028313;28;20388;-42
2022/11/05 02:58:10;;;;;;;6.13;2.33;;;;;;;9.14;100.00;100267.72;4977497;28;20468;-45
2022/11/05 03:00:39;;;;;;;4.07;1.20;;;;;;;9.13;100.00;100260.59;5069302;22;20020;-42
2022/11/05 03:03:29;;;;;;;4.95;1.00;;;;;;;9.14;100.00;100250.34;5025614;28;20494;-41
2022/11/05 03:06:14;;;;;;;3.88;1.38;;;;;;;9.11;100.00;100251.84;5025966;28;20099;-41
2022/11/05 03:08:59;;;;;;;1.80;0.60;;;;;;;9.12;100.00;100249.91;5026397;28;20049;-41
2022/11/05 03:11:29;;;;;;;6.63;1.58;;;;;;;9.11;100.00;100232.53;5027074;28;20064;-41
2022/11/05 03:14:04;;;;;;;9.77;1.88;;;;;;;9.11;100.00;100221.47;5029581;28;20037;-41
2022/11/05 03:16:31;;;;;;;6.45;0.60;;;;;;;9.13;99.84;100224.69;5024110;28;20785;-41
2022/11/05 03:19:02;;;;;;;1.75;0.52;;;;;;;9.14;99.78;100214.44;5024000;28;20491;-49
2022/11/05 03:21:52;;;;;;;4.85;1.20;;;;;;;9.15;99.82;100210.53;5025733;28;20064;-43
2022/11/05 03:24:45;;;;;;;5.88;1.05;;;;;;;9.13;99.67;100202.59;5026318;28;20044;-40
2022/11/05 03:27:19;;;;;;;2.30;1.38;;;;;;;9.12;99.67;100201.00;5021606;28;20049;-40
2022/11/05 03:29:50;;;;;;;2.72;0.57;;;;;;;9.12;99.43;100194.66;5023401;28;20049;-43
2022/11/05 03:32:21;;;;;;;2.45;0.65;;;;;;;9.12;99.51;100184.44;5031905;28;20041;-41
2022/11/05 03:34:55;;;;;;;1.55;0.70;;;;;;;9.13;99.49;100180.50;5027409;28;20038;-41
2022/11/05 03:37:26;;;;;;;2.10;0.60;;;;;;;9.14;99.52;100165.53;5023075;28;20056;-40
2022/11/05 03:39:59;;;;;;;4.80;1.23;;;;;;;9.15;99.25;100158.06;5023037;28;20038;-41
2022/11/05 03:42:31;;;;;;;2.55;0.85;;;;;;;9.16;99.27;100135.63;5025153;28;20045;-43
2022/11/05 03:45:00;;;;;;;;;;;;;;;9.16;99.35;100124.56;5029322;28;20499;-42
2022/11/05 03:47:34;;;;;;;6.60;1.10;;;;;;;9.14;99.03;100115.84;5025653;28;20259;-42
2022/11/05 03:50:13;;;;;;;2.33;1.02;;;;;;;9.12;99.02;100115.41;5027677;28;20053;-42
2022/11/05 03:52:47;;;;;;;2.83;0.93;;;;;;;9.12;98.99;100125.63;5022603;28;20100;-42
2022/11/05 03:55:14;;;;;;;3.38;1.30;;;;;;;9.12;99.14;100118.16;5026438;28;20060;-46
2022/11/05 03:57:46;;;;;;;5.55;1.13;;;;;;;9.12;99.26;100106.31;5023790;28;20041;-41
2022/11/05 04:00:13;;;;;;;3.55;0.90;;;;;;;9.12;99.20;100104.34;5022870;28;20495;-41
2022/11/05 04:02:40;;;;;;;7.18;1.85;;;;;;;9.12;99.21;100104.34;5027714;28;20053;-42
2022/11/05 04:05:07;;;;;;;4.85;0.85;;;;;;;9.11;99.40;100099.97;5029652;28;20045;-44
2022/11/05 04:18:36;;;;;;;3.97;1.10;;;;;;;9.08;99.95;100062.00;5021585;28;20034;-41
2022/11/05 04:24:08;;;;;;;5.25;1.30;;;;;;;9.08;100.00;100064.75;5027248;28;20103;-42
2022/11/05 04:26:40;;;;;;;5.47;0.98;;;;;;;9.07;100.00;100048.56;5028555;28;20054;-41
2022/11/05 04:31:52;;;;;;;2.90;0.85;;;;;;;9.06;100.00;100031.19;5026904;28;20064;-42
2022/11/05 04:34:20;;;;;;;6.70;0.70;;;;;;;9.05;100.00;100018.53;5009995;28;20060;-41
2022/11/05 04:36:49;;;;;;;3.33;0.77;;;;;;;9.05;100.00;100006.69;5001504;28;20108;-42
2022/11/05 04:39:19;;;;;;;2.67;0.68;;;;;;;9.05;100.00;99995.66;5026748;28;20495;-42
2022/11/05 04:41:49;;;;;;;9.90;1.35;;;;;;;9.05;100.00;99982.63;5024928;28;20144;-43
2022/11/05 04:44:16;;;;;;;1.58;0.60;;;;;;;9.06;100.00;99981.50;5008408;28;20064;-42
2022/11/05 04:46:42;;;;;;;7.47;0.77;;;;;;;9.06;100.00;99975.16;5024257;28;20565;-48
2022/11/05 04:49:09;;;;;;;1.10;0.60;;;;;;;9.07;100.00;99968.50;5014336;28;20578;-41
2022/11/05 04:51:36;;;;;;;2.88;0.70;;;;;;;9.07;100.00;99983.09;5025093;28;20528;-41
2022/11/05 04:54:03;;;;;;;4.07;0.63;;;;;;;9.08;100.00;99979.16;5030005;28;20407;-40
2022/11/05 04:56:29;;;;;;;3.15;0.70;;;;;;;9.08;100.00;99973.66;5030733;28;20041;-41
2022/11/05 04:58:56;;;;;;;5.72;0.63;;;;;;;9.10;100.00;99976.88;5029988;28;20060;-42
2022/11/05 05:01:24;;;;;;;1.98;0.55;;;;;;;9.10;100.00;99965.84;5029787;28;20057;-40
2022/11/05 05:03:52;;;;;;;8.70;0.68;;;;;;;9.12;100.00;99965.47;5029885;28;20498;-41
2022/11/05 05:06:20;;;;;;;3.92;0.70;;;;;;;9.13;100.00;99948.53;5028518;28;20038;-40
2022/11/05 05:08:48;;;;;;;1.20;0.40;;;;;;;9.14;100.00;99950.16;5027162;28;20557;-41
2022/11/05 05:11:17;;;;;;;5.75;0.68;;;;;;;9.15;100.00;99946.25;5029914;28;20156;-46
2022/11/05 05:13:44;;;;;;;4.18;0.80;;;;;;;9.17;100.00;99949.44;5031236;28;20033;-41
2022/11/05 05:16:22;;;;;;;1.58;0.40;;;;;;;9.18;100.00;99940.00;5029692;28;20522;-43
2022/11/05 05:18:49;;;;;;;3.97;1.13;;;;;;;9.20;100.00;99931.34;5029707;28;20056;-41
2022/11/05 05:24:07;;;;;;;3.67;0.73;;;;;;;9.22;100.00;99919.94;5023455;28;20048;-41
2022/11/05 05:26:36;;;;;;;8.38;1.30;;;;;;;9.23;100.00;99899.47;5024911;28;20050;-43
2022/11/05 05:29:03;;;;;;;2.33;0.57;;;;;;;9.24;100.00;99909.38;5026530;28;20041;-41
2022/11/05 05:31:29;;;;;;;4.95;0.63;;;;;;;9.25;100.00;99895.19;5024818;28;20037;-41
2022/11/05 05:33:56;;;;;;;3.50;0.57;;;;;;;9.26;100.00;99901.50;5026856;28;20046;-42
2022/11/05 05:36:23;;;;;;;2.78;0.50;;;;;;;9.30;100.00;99883.06;5028242;28;20446;-43
2022/11/05 05:38:50;;;;;;;5.45;0.80;;;;;;;9.34;100.00;99886.72;5024302;28;20077;-43
2022/11/05 05:41:17;;;;;;;1.70;0.50;;;;;;;9.38;100.00;99887.59;5025042;28;20494;-41
2022/11/05 05:43:44;;;;;;;2.38;0.50;;;;;;;9.39;100.00;99873.44;5028021;28;20561;-45
2022/11/05 05:46:12;;;;;;;1.20;0.57;;;;;;;9.42;100.00;99880.22;5024796;28;20128;-43
2022/11/05 05:48:40;;;;;;;1.13;0.45;;;;;;;9.45;100.00;99882.25;5008175;28;20056;-43
2022/11/05 05:51:09;;;;;;;4.10;0.50;;;;;;;9.47;100.00;99868.88;5028356;28;20041;-41
2022/11/05 05:53:37;;;;;;;2.08;0.43;;;;;;;9.48;100.00;99881.53;5023892;28;20134;-42
2022/11/05 05:56:04;;;;;;;1.25;0.63;;;;;;;9.50;100.00;99862.66;5026280;28;20053;-47
2022/11/05 05:58:38;;;;;;;1.80;0.50;;;;;;;9.52;100.00;99860.31;5024938;28;20049;-41
2022/11/05 06:01:10;;;;;;;0.60;0.38;;;;;;;9.53;100.00;99848.13;5015988;28;20056;-44
2022/11/05 06:03:44;;;;;;;4.35;0.43;;;;;;;9.52;100.00;99855.59;5033518;28;20151;-43
2022/11/05 06:06:12;;;;;;;3.70;0.50;;;;;;;9.55;100.00;99845.78;5021105;28;20128;-42
2022/11/05 06:08:39;;;;;;;1.17;0.40;;;;;;;9.55;100.00;99856.84;5025707;28;20045;-49
2022/11/05 06:11:07;;;;;;;2.17;0.40;;;;;;;9.57;100.00;99857.28;5024269;28;20483;-42
2022/11/05 06:13:34;;;;;;;0.40;0.30;;;;;;;9.63;100.00;99842.03;5020175;28;20073;-46
2022/11/05 06:16:07;;;;;;;0.20;0.10;;;;;;;9.76;100.00;99851.78;5022760;28;20050;-42
2022/11/05 06:18:34;;;;;;;0.32;0.20;;;;;;;9.86;100.00;99856.75;5024008;28;20068;-48
2022/11/05 06:21:02;;;;;;;3.83;0.43;;;;;;;9.96;100.00;99842.34;5008156;28;20042;-42
2022/11/05 06:23:33;;;;;;;0.00;0.00;;;;;;;10.11;100.00;99837.94;5024957;28;20044;-42
2022/11/05 06:26:05;;;;;;;0.05;0.00;;;;;;;10.20;100.00;99831.03;5024513;28;20040;-42
2022/11/05 06:28:32;;;;;;;0.08;0.00;;;;;;;10.28;100.00;99834.72;5021702;28;20140;-42
2022/11/05 06:30:59;;;;;;;0.20;0.20;;;;;;;10.34;100.00;99834.09;5023221;28;20049;-42
2022/11/05 06:33:26;;;;;;;0.70;0.15;;;;;;;10.40;100.00;99823.53;5024313;28;20055;-43
2022/11/05 06:35:53;;;;;;;0.20;0.00;;;;;;;10.45;100.00;99816.88;5029147;28;20041;-47
2022/11/05 06:38:20;;;;;;;2.40;0.10;;;;;;;10.46;100.00;99822.03;5018776;28;20507;-42
2022/11/05 06:40:46;;;;;;;0.00;0.00;;;;;;;10.47;100.00;99817.31;5024315;28;20048;-42
2022/11/05 06:43:13;;;;;;;0.30;0.03;;;;;;;10.52;100.00;99812.28;5023532;28;20446;-42
2022/11/05 06:45:40;;;;;;;0.15;0.03;;;;;;;10.58;100.00;99805.28;5024995;28;20517;-44
2022/11/05 06:48:07;;;;;;;0.15;0.00;;;;;;;10.64;100.00;99800.25;5024487;28;20111;-42
2022/11/05 06:50:34;;;;;;;0.43;0.00;;;;;;;10.68;100.00;99792.78;5022888;28;20049;-47
2022/11/05 06:53:02;;;;;;;0.08;0.00;;;;;;;10.70;100.00;99791.25;5027509;28;20041;-46
2022/11/05 06:55:30;;;;;;;0.73;0.00;;;;;;;10.73;100.00;99789.72;5039128;28;20406;-43
2022/11/05 06:57:57;;;;;;;1.13;0.00;;;;;;;10.73;100.00;99782.22;5028123;28;20064;-42
2022/11/05 07:00:25;;;;;;;0.00;0.00;;;;;;;10.75;100.00;99798.47;5027255;28;20065;-43
2022/11/05 07:02:54;;;;;;;0.00;0.00;;;;;;;10.76;100.00;99797.28;5024904;28;20582;-43
2022/11/05 07:05:22;;;;;;;0.75;0.00;;;;;;;10.77;100.00;99777.53;5028173;28;20137;-43
2022/11/05 07:07:48;;;;;;;0.28;0.00;;;;;;;10.78;100.00;99767.25;5024560;28;20049;-43
2022/11/05 07:10:17;;;;;;;0.00;0.00;;;;;;;10.79;100.00;99771.63;5028208;28;20373;-41
2022/11/05 07:12:44;;;;;;;0.30;0.00;;;;;;;10.79;100.00;99771.63;5027071;28;20048;-42
2022/11/05 07:15:11;;;;;;;0.13;0.08;;;;;;;10.80;100.00;99770.47;5028235;28;20095;-42
2022/11/05 07:17:39;;;;;;;0.32;0.00;;;;;;;10.84;100.00;99766.59;5028295;28;20120;-41
2022/11/05 07:20:07;;;;;;;0.30;0.00;;;;;;;10.88;100.00;99761.13;5028049;28;20048;-43
2022/11/05 07:22:34;;;;;;;0.00;0.00;;;;;;;10.90;100.00;99747.69;5021595;28;20552;-41
2022/11/05 07:25:01;;;;;;;0.20;0.00;;;;;;;10.91;100.00;99757.56;5027987;28;20050;-45
2022/11/05 07:27:28;;;;;;;0.00;0.00;;;;;;;10.91;100.00;99763.13;5024826;28;20385;-44
2022/11/05 07:29:55;;;;;;;0.00;0.00;;;;;;;10.92;100.00;99771.06;5026294;28;20045;-41
2022/11/05 07:32:21;;;;;;;0.00;0.00;;;;;;;10.94;100.00;99759.59;5019812;28;20068;-43
2022/11/05 07:34:48;;;;;;;1.40;0.00;;;;;;;10.96;100.00;99768.38;5026750;28;20037;-42
2022/11/05 07:37:17;;;;;;;0.75;0.10;;;;;;;10.99;100.00;99765.63;5023828;28;20137;-48
2022/11/05 07:39:44;;;;;;;0.00;0.00;;;;;;;11.02;100.00;99766.84;5017204;28;20487;-42
2022/11/05 07:42:12;;;;;;;0.00;0.00;;;;;;;11.07;100.00;99763.00;5026386;28;20394;-42
2022/11/05 07:44:39;;;;;;;0.25;0.00;;;;;;;11.13;100.00;99753.97;5026963;28;20053;-41
2022/11/05 07:47:06;;;;;;;0.05;0.00;;;;;;;11.14;100.00;99758.34;5028032;28;20057;-42
2022/11/05 07:49:33;;;;;;;0.65;0.10;;;;;;;11.17;100.00;99752.06;5027986;28;20467;-42
2022/11/05 07:51:59;;;;;;;0.00;0.00;;;;;;;11.19;100.00;99744.19;5029485;28;20471;-42
2022/11/05 07:54:26;;;;;;;0.10;0.10;;;;;;;11.21;100.00;99724.41;5029070;28;20049;-42
2022/11/05 07:56:53;;;;;;;0.32;0.10;;;;;;;11.26;100.00;99718.53;5027937;28;20037;-42
2022/11/05 07:59:19;;;;;;;1.55;0.00;;;;;;;11.25;100.00;99730.81;5026987;28;20049;-44
2022/11/05 08:01:46;;;;;;;0.25;0.10;;;;;;;11.29;100.00;99724.13;5024650;28;20064;-42
2022/11/05 08:04:13;;;;;;;0.10;0.10;;;;;;;11.33;100.00;99733.28;5030567;28;20107;-42
2022/11/05 08:06:40;;;;;;;0.10;0.00;;;;;;;11.35;100.00;99742.03;5029406;28;20041;-42
2022/11/05 08:09:06;;;;;;;0.00;0.00;;;;;;;11.36;100.00;99727.00;5025645;28;20427;-42
2022/11/05 08:11:34;;;;;;;0.10;0.10;;;;;;;11.39;100.00;99742.88;5026959;28;20241;-48
2022/11/05 08:14:01;;;;;;;1.95;0.10;;;;;;;11.41;100.00;99740.53;5027408;28;20041;-46
2022/11/05 08:16:28;;;;;;;0.00;0.00;;;;;;;11.44;100.00;99739.78;5026366;28;20052;-42
2022/11/05 08:18:54;;;;;;;0.05;0.00;;;;;;;11.45;100.00;99735.84;5019284;28;20042;-46
2022/11/05 08:21:21;;;;;;;0.00;0.00;;;;;;;11.47;100.00;99727.13;5030901;28;20049;-43
2022/11/05 08:23:48;;;;;;;0.95;0.10;;;;;;;11.48;100.00;99723.19;5030183;28;20057;-42
2022/11/05 08:26:14;;;;;;;0.00;0.00;;;;;;;11.49;100.00;99725.59;5030845;28;20511;-43
2022/11/05 08:28:41;;;;;;;0.10;0.00;;;;;;;11.52;100.00;99721.25;5030993;28;20056;-49
2022/11/05 08:31:07;;;;;;;0.00;0.00;;;;;;;11.56;100.00;99717.38;5026978;28;20045;-45
2022/11/05 08:33:34;;;;;;;1.33;0.00;;;;;;;11.61;100.00;99725.38;5030481;28;20045;-43
2022/11/05 08:36:02;;;;;;;0.32;0.00;;;;;;;11.62;100.00;99729.72;5030810;28;20050;-45
2022/11/05 08:38:29;;;;;;;0.63;0.00;;;;;;;11.65;100.00;99721.84;5030196;28;20057;-42
2022/11/05 08:40:57;;;;;;;0.10;0.10;;;;;;;11.69;100.00;99722.69;5028938;28;20496;-42
2022/11/05 08:43:24;;;;;;;0.20;0.00;;;;;;;11.74;100.00;99708.50;5010489;28;20038;-42
2022/11/05 08:45:50;;;;;;;0.35;0.00;;;;;;;11.78;100.00;99709.34;5029857;28;20069;-43
2022/11/05 08:48:18;;;;;;;0.30;0.20;;;;;;;11.83;100.00;99717.34;5030672;28;20053;-42
2022/11/05 08:50:47;;;;;;;0.10;0.10;;;;;;;11.85;100.00;99715.78;5028889;28;20490;-43
2022/11/05 08:53:14;;;;;;;0.00;0.00;;;;;;;11.90;100.00;99728.50;5032507;28;20084;-43
2022/11/05 08:55:42;;;;;;;0.43;0.00;;;;;;;11.96;100.00;99732.53;5026870;28;20454;-42
2022/11/05 08:58:13;;;;;;;0.20;0.20;;;;;;;11.98;100.00;99719.09;5008469;28;20127;-43
2022/11/05 09:00:41;;;;;;;0.80;0.20;;;;;;;12.00;100.00;99736.94;5023483;28;20872;-45
2022/11/05 09:03:09;;;;;;;0.43;0.20;;;;;;;12.03;100.00;99732.63;5029513;28;20424;-43
2022/11/05 09:05:38;;;;;;;1.45;0.30;;;;;;;12.04;100.00;99737.00;5028636;28;20135;-46
2022/11/05 09:08:07;;;;;;;0.47;0.35;;;;;;;12.04;100.00;99735.03;5022748;28;20510;-43
2022/11/05 09:10:34;;;;;;;0.10;0.10;;;;;;;12.06;100.00;99738.22;5032188;28;20056;-48
2022/11/05 09:13:01;;;;;;;0.25;0.10;;;;;;;12.05;100.00;99739.38;5028935;28;20041;-43
2022/11/05 09:15:29;;;;;;;1.50;0.22;;;;;;;12.09;100.00;99737.47;5024820;28;20033;-42
2022/11/05 09:17:56;;;;;;;0.30;0.10;;;;;;;12.13;100.00;99746.59;5025819;28;20052;-44
2022/11/05 09:20:23;;;;;;;0.73;0.57;;;;;;;12.15;100.00;99751.78;5029117;28;20446;-44
2022/11/05 09:22:50;;;;;;;1.88;0.22;;;;;;;12.19;100.00;99747.06;5030055;28;20108;-44
2022/11/05 09:25:17;;;;;;;0.43;0.20;;;;;;;12.22;100.00;99762.97;5029715;28;20438;-46
2022/11/05 09:27:43;;;;;;;0.43;0.20;;;;;;;12.23;100.00;99763.75;5034103;28;20045;-42
2022/11/05 09:30:12;;;;;;;0.73;0.28;;;;;;;12.23;100.00;99759.78;5028030;28;20060;-42
2022/11/05 09:32:39;;;;;;;0.57;0.28;;;;;;;12.23;100.00;99764.56;5028509;28;20123;-43
2022/11/05 09:35:06;;;;;;;0.20;0.20;;;;;;;12.22;100.00;99760.19;5015795;28;20828;-43
2022/11/05 09:37:34;;;;;;;0.20;0.20;;;;;;;12.21;100.00;99767.72;5022781;28;20065;-42
2022/11/05 09:40:01;;;;;;;1.30;0.10;;;;;;;12.23;100.00;99770.91;5028239;28;20056;-43
2022/11/05 09:42:42;;;;;;;0.77;0.20;;;;;;;12.24;100.00;99760.59;5029494;28;20052;-47
2022/11/05 09:45:17;;;;;;;0.20;0.10;;;;;;;12.24;100.00;99749.50;5034473;28;20045;-45
2022/11/05 09:48:00;;;;;;;0.47;0.10;;;;;;;12.25;100.00;99748.31;5028750;28;20119;-43
2022/11/05 09:50:35;;;;;;;;;;;;;;;12.22;100.00;99749.09;5030022;28;20047;-47
2022/11/05 09:53:03;;;;;;;1.35;0.10;;;;;;;12.21;100.00;99750.25;5029117;28;20433;-43
2022/11/05 09:55:37;;;;;;;0.00;0.00;;;;;;;12.20;100.00;99757.00;5029250;28;20116;-43
2022/11/05 09:58:13;;;;;;;0.35;0.20;;;;;;;12.19;100.00;99755.41;5028180;28;20034;-42
2022/11/05 10:00:40;;;;;;;0.10;0.10;;;;;;;12.18;100.00;99751.81;5028415;28;20049;-42
2022/11/05 10:03:13;;;;;;;1.77;0.25;;;;;;;12.15;100.00;99760.13;5038002;28;20057;-43
2022/11/05 10:05:40;;;;;;;4.78;0.95;;;;;;;12.13;100.00;99765.22;5028929;28;20046;-42
2022/11/05 10:08:16;;;;;;;2.33;0.98;;;;;;;12.07;100.00;99761.22;5007839;28;20049;-43
2022/11/05 10:11:00;;;;;;;13.43;1.58;;;;;;;12.02;100.00;99762.31;5028285;28;20037;-43
2022/11/05 10:13:41;;;;;;;11.27;2.72;;;;;;;11.95;100.00;99753.94;5029038;28;20479;-43
2022/11/05 10:16:30;;;;;;;10.85;3.47;;;;;;;11.90;100.00;99770.09;5028931;28;20120;-47
2022/11/05 10:19:12;;;;;;;14.77;2.80;;;;;;;11.87;100.00;99776.41;5028258;28;20046;-42
2022/11/05 10:21:39;;;;;;;13.45;2.83;;;;;;;11.84;100.00;99768.84;5028109;28;20080;-45
2022/11/05 10:24:27;;;;;;;9.05;2.83;;;;;;;11.84;100.00;99786.28;5028709;28;20140;-43
2022/11/05 10:26:55;;;;;;;17.40;2.78;;;;;;;11.86;100.00;99791.47;5028873;28;20069;-42
2022/11/05 10:29:28;;;;;;;18.98;2.63;;;;;;;11.90;100.00;99800.63;5022064;28;20515;-42
2022/11/05 10:32:02;;;;;;;20.70;3.70;;;;;;;11.97;100.00;99782.09;5028899;28;20083;-43
2022/11/05 10:34:32;;;;;;;29.33;4.30;;;;;;;12.06;100.00;99787.34;5028733;28;20045;-43
2022/11/05 10:36:59;;;;;;;12.77;3.00;;;;;;;12.13;100.00;99774.34;5037201;28;20120;-46
2022/11/05 10:39:28;;;;;;;30.00;4.97;;;;;;;12.20;100.00;99782.75;5024781;28;20515;-43
2022/11/05 10:42:05;;;;;;;13.63;3.25;;;;;;;12.27;100.00;99798.69;5025863;28;20049;-46
2022/11/05 10:44:55;;;;;;;17.08;3.75;;;;;;;12.36;100.00;99779.78;5028666;28;20050;-45
2022/11/05 10:47:22;;;;;;;22.73;3.78;;;;;;;12.45;100.00;99776.66;5027942;28;20115;-42
2022/11/05 10:50:08;;;;;;;11.98;3.70;;;;;;;12.47;100.00;99791.75;5028891;28;20049;-43
2022/11/05 10:52:55;;;;;;;21.40;4.03;;;;;;;12.47;100.00;99791.00;5014104;28;20049;-44
2022/11/05 10:55:33;;;;;;;17.63;4.70;;;;;;;12.34;100.00;99787.66;5023925;28;20445;-44
2022/11/05 10:58:34;;;;;;;26.48;5.18;;;;;;;12.23;100.00;99785.97;5028917;28;20049;-42
2022/11/05 11:01:05;;;;;;;21.95;3.17;;;;;;;12.13;100.00;99781.88;5009883;28;20053;-47
2022/11/05 11:03:37;;;;;;;23.75;4.50;;;;;;;12.10;100.00;99777.06;5028874;28;20496;-47
2022/11/05 11:06:33;;;;;;;24.08;4.50;;;;;;;12.07;100.00;99777.84;5028150;28;20399;-44
2022/11/05 11:09:05;;;;;;;28.00;5.18;;;;;;;12.06;100.00;99790.13;5016309;28;20057;-45
2022/11/05 11:11:37;;;;;;;21.80;4.95;;;;;;;12.05;100.00;99774.66;5040247;28;20048;-42
2022/11/05 11:14:10;;;;;;;27.85;4.78;;;;;;;12.07;100.00;99773.09;5028375;28;20053;-43
2022/11/05 11:16:45;;;;;;;29.23;5.25;;;;;;;12.13;100.00;99793.78;5028554;28;20048;-42
2022/11/05 11:19:29;;;;;;;19.30;4.68;;;;;;;12.23;100.00;99792.31;5028438;28;20045;-47
2022/11/05 11:22:01;;;;;;;33.88;5.35;;;;;;;12.30;100.00;99780.47;5029524;28;20045;-42
2022/11/05 11:24:30;;;;;;;21.58;3.85;;;;;;;12.33;100.00;99802.72;5031350;28;20060;-44
2022/11/05 11:27:32;;;;;;;24.02;4.03;;;;;;;12.33;99.68;99808.28;5032775;28;20041;-42
2022/11/05 11:30:01;;;;;;;19.17;3.92;;;;;;;12.29;99.68;99812.19;5013360;28;20042;-43
2022/11/05 11:32:35;;;;;;;27.90;3.95;;;;;;;12.23;99.53;99803.41;5030458;28;20446;-45
2022/11/05 11:35:03;;;;;;;21.83;4.35;;;;;;;12.18;99.26;99809.28;5031212;28;20041;-43
2022/11/05 11:37:41;;;;;;;26.75;4.05;;;;;;;12.13;99.32;99804.88;5026379;28;20483;-42
2022/11/05 11:40:16;;;;;;;22.50;5.53;;;;;;;12.07;99.14;99808.38;5030497;28;20453;-43
2022/11/05 11:42:46;;;;;;;20.10;4.25;;;;;;;12.03;98.91;99821.38;5030924;28;20045;-42
2022/11/05 11:45:31;;;;;;;23.75;4.78;;;;;;;12.05;99.20;99807.94;5044953;28;20045;-44
2022/11/05 11:48:02;;;;;;;16.08;5.13;;;;;;;12.12;98.91;99814.41;5031817;28;20570;-43
2022/11/05 11:50:34;;;;;;;20.00;3.72;;;;;;;12.24;98.95;99821.66;5031760;28;20048;-43
2022/11/05 11:53:22;;;;;;;26.98;4.30;;;;;;;12.31;98.32;99826.50;5021129;28;20455;-42
2022/11/05 11:55:58;;;;;;;23.45;6.70;;;;;;;12.29;97.60;99823.28;5030292;28;20045;-43
2022/11/05 11:58:43;;;;;;;19.35;4.28;;;;;;;12.31;97.66;99818.94;5027239;28;20472;-49
2022/11/05 12:01:22;;;;;;;24.20;6.32;;;;;;;12.31;97.12;99816.16;5024640;28;20499;-44
2022/11/05 12:04:07;;;;;;;25.13;5.82;;;;;;;12.33;97.07;99810.25;5030594;28;20054;-43
2022/11/05 12:07:03;;;;;;;19.80;4.28;;;;;;;12.33;96.59;99796.38;5031142;28;20056;-43
2022/11/05 12:09:59;;;;;;;23.48;5.05;;;;;;;12.29;96.51;99823.28;5030826;28;20049;-42
2022/11/05 12:12:48;;;;;;;27.05;4.65;;;;;;;12.28;96.20;99822.50;5030803;28;20049;-42
2022/11/05 12:15:17;;;;;;;22.08;4.70;;;;;;;12.31;95.82;99827.28;4982837;28;20065;-43
2022/11/05 12:18:03;;;;;;;31.63;6.28;;;;;;;12.38;95.52;99821.81;5034109;28;20049;-44
2022/11/05 12:20:46;;;;;;;20.23;4.00;;;;;;;12.42;95.17;99819.88;5029690;28;20045;-43
2022/11/05 12:23:42;;;;;;;24.40;4.05;;;;;;;12.45;94.70;99812.75;5021584;28;20149;-44
2022/11/05 12:26:47;;;;;;;22.50;5.72;;;;;;;12.47;94.33;99813.97;5030602;28;20046;-42
2022/11/05 12:29:32;;;;;;;20.77;3.50;;;;;;;12.56;94.19;99808.94;4980435;28;20054;-43
2022/11/05 12:32:23;;;;;;;21.60;3.33;;;;;;;12.63;93.65;99817.31;5026470;28;20049;-43
2022/11/05 12:35:17;;;;;;;12.77;4.10;;;;;;;12.65;92.50;99841.94;5033968;28;20069;-43